sensor_id;sensor_type;location;lat;lon;timestamp;pressure;altitude;pressure_sealevel;temperature;humidity
48824;BME280;34640;53.590;10.054;2022-08-21T00:03:06;101198.19;;;16.48;95.69
48824;BME280;34640;53.590;10.054;2022-08-21T00:06:19;101195.03;;;16.36;96.56
48824;BME280;34640;53.590;10.054;2022-08-21T00:09:29;101190.69;;;16.36;97.03
48824;BME280;34640;53.590;10.054;2022-08-21T00:12:40;101194.16;;;16.35;97.15
48824;BME280;34640;53.590;10.054;2022-08-21T00:15:51;101181.72;;;16.31;97.78
48824;BME280;34640;53.590;10.054;2022-08-21T00:19:02;101185.31;;;16.33;97.61
48824;BME280;34640;53.590;10.054;2022-08-21T00:22:14;101182.81;;;16.36;97.64
48824;BME280;34640;53.590;10.054;2022-08-21T00:25:24;101182.09;;;16.40;97.70
48824;BME280;34640;53.590;10.054;2022-08-21T00:28:34;101179.41;;;16.39;97.66
48824;BME280;34640;53.590;10.054;2022-08-21T00:31:45;101176.59;;;16.34;97.63
48824;BME280;34640;53.590;10.054;2022-08-21T00:34:56;101170.06;;;16.26;98.06
48824;BME280;34640;53.590;10.054;2022-08-21T00:38:09;101160.97;;;16.18;98.67
48824;BME280;34640;53.590;10.054;2022-08-21T00:41:19;101159.88;;;16.13;99.40
48824;BME280;34640;53.590;10.054;2022-08-21T00:44:49;101168.84;;;16.18;99.24
48824;BME280;34640;53.590;10.054;2022-08-21T00:48:00;101162.69;;;16.17;99.28
48824;BME280;34640;53.590;10.054;2022-08-21T00:51:14;101163.41;;;16.13;99.80
48824;BME280;34640;53.590;10.054;2022-08-21T00:54:32;101159.06;;;16.14;99.99
48824;BME280;34640;53.590;10.054;2022-08-21T00:57:48;101164.44;;;16.17;99.77
48824;BME280;34640;53.590;10.054;2022-08-21T01:00:59;101163.53;;;16.16;99.83
48824;BME280;34640;53.590;10.054;2022-08-21T01:04:16;101161.56;;;16.11;100.00
48824;BME280;34640;53.590;10.054;2022-08-21T01:07:27;101162.31;;;16.08;100.00
48824;BME280;34640;53.590;10.054;2022-08-21T01:10:39;101159.81;;;16.11;100.00
48824;BME280;34640;53.590;10.054;2022-08-21T01:13:50;101161.63;;;16.12;100.00
48824;BME280;34640;53.590;10.054;2022-08-21T01:17:02;101169.31;;;16.08;100.00
48824;BME280;34640;53.590;10.054;2022-08-21T01:20:12;101152.47;;;16.04;100.00
48824;BME280;34640;53.590;10.054;2022-08-21T01:23:24;101161.34;;;16.06;100.00
48824;BME280;34640;53.590;10.054;2022-08-21T01:26:35;101160.66;;;16.10;100.00
48824;BME280;34640;53.590;10.054;2022-08-21T01:29:53;101167.75;;;16.13;100.00
48824;BME280;34640;53.590;10.054;2022-08-21T01:33:05;101166.88;;;16.12;100.00
48824;BME280;34640;53.590;10.054;2022-08-21T01:36:15;101159.63;;;16.07;100.00
48824;BME280;34640;53.590;10.054;2022-08-21T01:39:27;101167.69;;;16.11;100.00
48824;BME280;34640;53.590;10.054;2022-08-21T01:42:37;101169.38;;;16.09;100.00
48824;BME280;34640;53.590;10.054;2022-08-21T01:45:48;101165.97;;;16.12;100.00
48824;BME280;34640;53.590;10.054;2022-08-21T01:48:58;101161.63;;;16.12;100.00
48824;BME280;34640;53.590;10.054;2022-08-21T01:52:08;101157.13;;;16.10;100.00
48824;BME280;34640;53.590;10.054;2022-08-21T01:55:21;101155.28;;;16.07;100.00
48824;BME280;34640;53.590;10.054;2022-08-21T01:58:31;101154.97;;;16.01;100.00
48824;BME280;34640;53.590;10.054;2022-08-21T02:01:43;101152.66;;;15.88;100.00
48824;BME280;34640;53.590;10.054;2022-08-21T02:04:54;101156.56;;;15.78;100.00
48824;BME280;34640;53.590;10.054;2022-08-21T02:08:06;101159.91;;;15.74;100.00
48824;BME280;34640;53.590;10.054;2022-08-21T02:11:18;101158.88;;;15.71;100.00
48824;BME280;34640;53.590;10.054;2022-08-21T02:14:29;101156.19;;;15.69;100.00
48824;BME280;34640;53.590;10.054;2022-08-21T02:17:42;101152.03;;;15.74;100.00
48824;BME280;34640;53.590;10.054;2022-08-21T02:20:53;101162.88;;;15.82;100.00
48824;BME280;34640;53.590;10.054;2022-08-21T02:24:05;101154.16;;;15.83;100.00
48824;BME280;34640;53.590;10.054;2022-08-21T02:27:17;101159.34;;;15.81;100.00
48824;BME280;34640;53.590;10.054;2022-08-21T02:30:35;101161.84;;;15.78;100.00
48824;BME280;34640;53.590;10.054;2022-08-21T02:33:46;101162.78;;;15.80;100.00
48824;BME280;34640;53.590;10.054;2022-08-21T02:36:57;101160.22;;;15.82;100.00
48824;BME280;34640;53.590;10.054;2022-08-21T02:40:09;101160.22;;;15.82;100.00
48824;BME280;34640;53.590;10.054;2022-08-21T02:43:23;101147.75;;;15.76;100.00
48824;BME280;34640;53.590;10.054;2022-08-21T02:46:34;101152.72;;;15.70;100.00
48824;BME280;34640;53.590;10.054;2022-08-21T02:49:45;101151.81;;;15.70;100.00
48824;BME280;34640;53.590;10.054;2022-08-21T02:52:56;101151.00;;;15.71;100.00
48824;BME280;34640;53.590;10.054;2022-08-21T02:56:10;101142.16;;;15.69;100.00
48824;BME280;34640;53.590;10.054;2022-08-21T02:59:21;101138.56;;;15.67;100.00
48824;BME280;34640;53.590;10.054;2022-08-21T03:02:31;101142.72;;;15.62;100.00
48824;BME280;34640;53.590;10.054;2022-08-21T03:05:44;101146.88;;;15.58;100.00
48824;BME280;34640;53.590;10.054;2022-08-21T03:08:54;101140.66;;;15.56;100.00
48824;BME280;34640;53.590;10.054;2022-08-21T03:12:04;101136.09;;;15.52;100.00
48824;BME280;34640;53.590;10.054;2022-08-21T03:15:19;101139.34;;;15.46;100.00
48824;BME280;34640;53.590;10.054;2022-08-21T03:18:30;101133.66;;;15.37;100.00
48824;BME280;34640;53.590;10.054;2022-08-21T03:21:41;101134.97;;;15.27;100.00
48824;BME280;34640;53.590;10.054;2022-08-21T03:24:51;101131.38;;;15.25;100.00
48824;BME280;34640;53.590;10.054;2022-08-21T03:28:23;101127.84;;;15.25;100.00
48824;BME280;34640;53.590;10.054;2022-08-21T03:31:35;101133.72;;;15.19;100.00
48824;BME280;34640;53.590;10.054;2022-08-21T03:34:45;101139.81;;;15.18;100.00
48824;BME280;34640;53.590;10.054;2022-08-21T03:37:56;101139.81;;;15.18;100.00
48824;BME280;34640;53.590;10.054;2022-08-21T03:41:08;101136.25;;;15.18;100.00
48824;BME280;34640;53.590;10.054;2022-08-21T03:44:18;101122.16;;;15.16;100.00
48824;BME280;34640;53.590;10.054;2022-08-21T03:47:30;101129.19;;;15.17;100.00
48824;BME280;34640;53.590;10.054;2022-08-21T03:50:43;101133.56;;;15.16;100.00
48824;BME280;34640;53.590;10.054;2022-08-21T03:53:55;101144.03;;;15.16;100.00
48824;BME280;34640;53.590;10.054;2022-08-21T03:57:05;101135.28;;;15.16;100.00
48824;BME280;34640;53.590;10.054;2022-08-21T04:00:16;101138.16;;;15.20;100.00
48824;BME280;34640;53.590;10.054;2022-08-21T04:03:29;101138.06;;;15.19;100.00
48824;BME280;34640;53.590;10.054;2022-08-21T04:06:40;101141.50;;;15.18;100.00
48824;BME280;34640;53.590;10.054;2022-08-21T04:09:50;101141.50;;;15.18;100.00
48824;BME280;34640;53.590;10.054;2022-08-21T04:13:02;101142.25;;;15.15;100.00
48824;BME280;34640;53.590;10.054;2022-08-21T04:16:12;101138.88;;;15.18;100.00
48824;BME280;34640;53.590;10.054;2022-08-21T04:19:24;101144.28;;;15.21;100.00
48824;BME280;34640;53.590;10.054;2022-08-21T04:22:35;101138.88;;;15.18;100.00
48824;BME280;34640;53.590;10.054;2022-08-21T04:25:45;101137.06;;;15.17;100.00
48824;BME280;34640;53.590;10.054;2022-08-21T04:28:56;101141.34;;;15.15;100.00
48824;BME280;34640;53.590;10.054;2022-08-21T04:32:07;101139.19;;;15.06;100.00
48824;BME280;34640;53.590;10.054;2022-08-21T04:35:21;101140.94;;;15.06;100.00
48824;BME280;34640;53.590;10.054;2022-08-21T04:38:32;101137.63;;;15.10;100.00
48824;BME280;34640;53.590;10.054;2022-08-21T04:41:45;101144.88;;;15.15;100.00
48824;BME280;34640;53.590;10.054;2022-08-21T04:44:56;101153.88;;;15.20;100.00
48824;BME280;34640;53.590;10.054;2022-08-21T04:48:08;101151.69;;;15.29;100.00
48824;BME280;34640;53.590;10.054;2022-08-21T04:51:25;101148.56;;;15.38;100.00
48824;BME280;34640;53.590;10.054;2022-08-21T04:54:39;101154.06;;;15.43;100.00
48824;BME280;34640;53.590;10.054;2022-08-21T04:57:50;101157.94;;;15.51;100.00
48824;BME280;34640;53.590;10.054;2022-08-21T05:01:04;101155.16;;;15.48;100.00
48824;BME280;34640;53.590;10.054;2022-08-21T05:04:18;101162.28;;;15.50;100.00
48824;BME280;34640;53.590;10.054;2022-08-21T05:07:33;101165.94;;;15.54;100.00
48824;BME280;34640;53.590;10.054;2022-08-21T05:10:51;101164.97;;;15.52;100.00
48824;BME280;34640;53.590;10.054;2022-08-21T05:14:08;101171.25;;;15.55;100.00
48824;BME280;34640;53.590;10.054;2022-08-21T05:17:19;101161.09;;;15.62;100.00
48824;BME280;34640;53.590;10.054;2022-08-21T05:20:30;101170.00;;;15.65;100.00
48824;BME280;34640;53.590;10.054;2022-08-21T05:23:44;101166.63;;;15.68;100.00
48824;BME280;34640;53.590;10.054;2022-08-21T05:26:55;101168.88;;;15.79;100.00
48824;BME280;34640;53.590;10.054;2022-08-21T05:30:06;101171.19;;;15.91;100.00
48824;BME280;34640;53.590;10.054;2022-08-21T05:33:17;101174.31;;;16.03;100.00
48824;BME280;34640;53.590;10.054;2022-08-21T05:36:28;101170.97;;;16.06;100.00
48824;BME280;34640;53.590;10.054;2022-08-21T05:39:39;101173.91;;;16.13;100.00
48824;BME280;34640;53.590;10.054;2022-08-21T05:43:10;101176.94;;;16.23;100.00
48824;BME280;34640;53.590;10.054;2022-08-21T05:46:20;101168.28;;;16.25;100.00
48824;BME280;34640;53.590;10.054;2022-08-21T05:49:30;101179.16;;;16.33;100.00
48824;BME280;34640;53.590;10.054;2022-08-21T05:52:40;101180.50;;;16.44;100.00
48824;BME280;34640;53.590;10.054;2022-08-21T05:55:52;101176.19;;;16.46;99.62
48824;BME280;34640;53.590;10.054;2022-08-21T05:59:02;101175.63;;;16.53;98.69
48824;BME280;34640;53.590;10.054;2022-08-21T06:02:17;101175.69;;;16.55;98.68
48824;BME280;34640;53.590;10.054;2022-08-21T06:05:28;101182.41;;;16.48;98.99
48824;BME280;34640;53.590;10.054;2022-08-21T06:08:45;101175.56;;;16.52;98.40
48824;BME280;34640;53.590;10.054;2022-08-21T06:11:56;101173.13;;;16.56;98.56
48824;BME280;34640;53.590;10.054;2022-08-21T06:15:07;101185.50;;;16.59;97.79
48824;BME280;34640;53.590;10.054;2022-08-21T06:18:18;101177.63;;;16.59;98.52
48824;BME280;34640;53.590;10.054;2022-08-21T06:21:28;101175.06;;;16.81;97.45
48824;BME280;34640;53.590;10.054;2022-08-21T06:24:38;101176.25;;;17.10;96.25
48824;BME280;34640;53.590;10.054;2022-08-21T06:27:49;101182.97;;;17.24;94.18
48824;BME280;34640;53.590;10.054;2022-08-21T06:31:00;101176.97;;;17.28;91.25
48824;BME280;34640;53.590;10.054;2022-08-21T06:34:10;101184.75;;;17.25;90.52
48824;BME280;34640;53.590;10.054;2022-08-21T06:37:21;101176.53;;;17.38;89.95
48824;BME280;34640;53.590;10.054;2022-08-21T06:40:31;101178.03;;;17.56;88.28
48824;BME280;34640;53.590;10.054;2022-08-21T06:43:44;101174.59;;;17.57;87.93
48824;BME280;34640;53.590;10.054;2022-08-21T06:46:54;101171.41;;;17.65;86.80
48824;BME280;34640;53.590;10.054;2022-08-21T06:50:05;101173.69;;;17.79;85.13
48824;BME280;34640;53.590;10.054;2022-08-21T06:53:19;101172.84;;;18.04;83.09
48824;BME280;34640;53.590;10.054;2022-08-21T06:56:30;101172.91;;;18.05;82.44
48824;BME280;34640;53.590;10.054;2022-08-21T06:59:43;101174.75;;;18.08;82.16
48824;BME280;34640;53.590;10.054;2022-08-21T07:02:53;101164.63;;;18.20;81.19
48824;BME280;34640;53.590;10.054;2022-08-21T07:06:05;101161.69;;;18.36;79.86
48824;BME280;34640;53.590;10.054;2022-08-21T07:09:16;101160.09;;;18.41;79.40
48824;BME280;34640;53.590;10.054;2022-08-21T07:12:32;101161.63;;;18.35;79.91
48824;BME280;34640;53.590;10.054;2022-08-21T07:15:44;101158.00;;;18.31;80.75
48824;BME280;34640;53.590;10.054;2022-08-21T07:18:55;101163.31;;;18.58;79.09
48824;BME280;34640;53.590;10.054;2022-08-21T07:22:05;101158.78;;;18.79;77.83
48824;BME280;34640;53.590;10.054;2022-08-21T07:25:16;101155.84;;;18.97;76.33
48824;BME280;34640;53.590;10.054;2022-08-21T07:28:26;101150.22;;;19.13;75.45
48824;BME280;34640;53.590;10.054;2022-08-21T07:31:38;101147.94;;;19.26;72.94
48824;BME280;34640;53.590;10.054;2022-08-21T07:34:48;101153.75;;;19.42;71.78
48824;BME280;34640;53.590;10.054;2022-08-21T07:37:58;101140.78;;;19.51;70.71
48824;BME280;34640;53.590;10.054;2022-08-21T07:41:13;101141.28;;;19.67;69.08
48824;BME280;34640;53.590;10.054;2022-08-21T07:44:25;101137.25;;;19.79;69.00
48824;BME280;34640;53.590;10.054;2022-08-21T07:47:37;101143.19;;;20.02;67.86
48824;BME280;34640;53.590;10.054;2022-08-21T07:50:51;101136.47;;;20.15;67.43
48824;BME280;34640;53.590;10.054;2022-08-21T07:54:01;101134.22;;;20.30;65.77
48824;BME280;34640;53.590;10.054;2022-08-21T07:57:13;101132.81;;;20.41;65.32
48824;BME280;34640;53.590;10.054;2022-08-21T08:00:28;101131.03;;;20.40;66.44
48824;BME280;34640;53.590;10.054;2022-08-21T08:03:41;101140.03;;;20.49;65.39
48824;BME280;34640;53.590;10.054;2022-08-21T08:06:51;101141.31;;;20.64;64.72
48824;BME280;34640;53.590;10.054;2022-08-21T08:10:02;101138.00;;;20.73;64.93
48824;BME280;34640;53.590;10.054;2022-08-21T08:13:13;101135.28;;;21.06;64.32
48824;BME280;34640;53.590;10.054;2022-08-21T08:16:24;101135.06;;;21.77;61.94
48824;BME280;34640;53.590;10.054;2022-08-21T08:19:36;101144.25;;;23.53;55.41
48824;BME280;34640;53.590;10.054;2022-08-21T08:22:46;101145.09;;;24.21;52.77
48824;BME280;34640;53.590;10.054;2022-08-21T08:26:07;101143.69;;;24.55;51.54
48824;BME280;34640;53.590;10.054;2022-08-21T08:29:17;101137.47;;;23.73;53.39
48824;BME280;34640;53.590;10.054;2022-08-21T08:32:27;101130.69;;;23.33;55.02
48824;BME280;34640;53.590;10.054;2022-08-21T08:35:39;101129.97;;;22.82;57.08
48824;BME280;34640;53.590;10.054;2022-08-21T08:38:50;101134.59;;;22.44;59.22
48824;BME280;34640;53.590;10.054;2022-08-21T08:42:06;101124.72;;;22.36;59.75
48824;BME280;34640;53.590;10.054;2022-08-21T08:45:40;101120.31;;;22.36;59.98
48824;BME280;34640;53.590;10.054;2022-08-21T08:48:56;101122.28;;;22.49;60.42
48824;BME280;34640;53.590;10.054;2022-08-21T08:52:18;101110.88;;;22.55;59.89
48824;BME280;34640;53.590;10.054;2022-08-21T08:55:33;101117.28;;;22.68;59.97
48824;BME280;34640;53.590;10.054;2022-08-21T08:58:45;101113.69;;;22.64;59.85
48824;BME280;34640;53.590;10.054;2022-08-21T09:01:57;101119.13;;;22.72;60.31
48824;BME280;34640;53.590;10.054;2022-08-21T09:05:12;101117.72;;;22.92;59.08
48824;BME280;34640;53.590;10.054;2022-08-21T09:08:36;101112.63;;;23.06;58.60
48824;BME280;34640;53.590;10.054;2022-08-21T09:11:57;101110.09;;;23.18;58.25
48824;BME280;34640;53.590;10.054;2022-08-21T09:15:16;101116.28;;;23.17;57.59
48824;BME280;34640;53.590;10.054;2022-08-21T09:18:38;101112.75;;;23.18;57.63
48824;BME280;34640;53.590;10.054;2022-08-21T09:21:58;101108.63;;;23.40;56.57
48824;BME280;34640;53.590;10.054;2022-08-21T09:25:18;101100.72;;;23.43;56.46
48824;BME280;34640;53.590;10.054;2022-08-21T09:28:33;101103.34;;;23.41;55.96
48824;BME280;34640;53.590;10.054;2022-08-21T09:31:44;101093.66;;;23.45;55.38
48824;BME280;34640;53.590;10.054;2022-08-21T09:34:57;101101.69;;;23.51;55.31
48824;BME280;34640;53.590;10.054;2022-08-21T09:38:08;101088.56;;;23.62;55.21
48824;BME280;34640;53.590;10.054;2022-08-21T09:41:28;101090.22;;;23.55;54.99
48824;BME280;34640;53.590;10.054;2022-08-21T09:44:41;101092.22;;;23.70;54.50
48824;BME280;34640;53.590;10.054;2022-08-21T09:47:53;101096.72;;;23.78;54.22
48824;BME280;34640;53.590;10.054;2022-08-21T09:51:10;101091.31;;;23.69;55.01
48824;BME280;34640;53.590;10.054;2022-08-21T09:54:26;101088.00;;;23.89;55.02
48824;BME280;34640;53.590;10.054;2022-08-21T09:57:39;101095.09;;;23.88;54.37
48824;BME280;34640;53.590;10.054;2022-08-21T10:00:57;101093.56;;;24.13;54.05
48824;BME280;34640;53.590;10.054;2022-08-21T10:04:09;101088.97;;;24.00;53.72
48824;BME280;34640;53.590;10.054;2022-08-21T10:07:22;101089.09;;;24.09;54.36
48824;BME280;34640;53.590;10.054;2022-08-21T10:10:36;101092.69;;;24.14;54.31
48824;BME280;34640;53.590;10.054;2022-08-21T10:13:53;101089.19;;;24.21;54.47
48824;BME280;34640;53.590;10.054;2022-08-21T10:17:14;101091.13;;;24.34;53.39
48824;BME280;34640;53.590;10.054;2022-08-21T10:20:30;101093.00;;;24.46;53.28
48824;BME280;34640;53.590;10.054;2022-08-21T10:23:54;101087.91;;;24.74;53.14
48824;BME280;34640;53.590;10.054;2022-08-21T10:27:22;101087.06;;;24.81;52.28
48824;BME280;34640;53.590;10.054;2022-08-21T10:30:44;101096.81;;;24.82;52.79
48824;BME280;34640;53.590;10.054;2022-08-21T10:34:06;101102.06;;;24.71;52.85
48824;BME280;34640;53.590;10.054;2022-08-21T10:37:27;101093.25;;;24.77;52.93
48824;BME280;34640;53.590;10.054;2022-08-21T10:40:48;101095.84;;;24.71;53.37
48824;BME280;34640;53.590;10.054;2022-08-21T10:44:08;101094.00;;;24.62;53.46
48824;BME280;34640;53.590;10.054;2022-08-21T10:47:29;101095.75;;;24.54;53.55
48824;BME280;34640;53.590;10.054;2022-08-21T10:50:48;101091.22;;;24.48;52.98
48824;BME280;34640;53.590;10.054;2022-08-21T10:54:05;101087.59;;;24.34;52.01
48824;BME280;34640;53.590;10.054;2022-08-21T10:57:27;101089.44;;;24.46;51.65
48824;BME280;34640;53.590;10.054;2022-08-21T11:00:44;101088.47;;;24.34;52.59
48824;BME280;34640;53.590;10.054;2022-08-21T11:04:07;101089.25;;;24.27;53.54
48824;BME280;34640;53.590;10.054;2022-08-21T11:07:21;101087.75;;;24.54;52.70
48824;BME280;34640;53.590;10.054;2022-08-21T11:10:37;101081.66;;;24.72;51.42
48824;BME280;34640;53.590;10.054;2022-08-21T11:14:10;101079.09;;;24.87;49.84
48824;BME280;34640;53.590;10.054;2022-08-21T11:17:30;101089.00;;;25.05;50.04
48824;BME280;34640;53.590;10.054;2022-08-21T11:20:47;101087.25;;;25.05;49.94
48824;BME280;34640;53.590;10.054;2022-08-21T11:24:03;101087.91;;;24.77;50.38
48824;BME280;34640;53.590;10.054;2022-08-21T11:27:23;101101.22;;;24.74;49.01
48824;BME280;34640;53.590;10.054;2022-08-21T11:30:40;101096.81;;;24.80;48.40
48824;BME280;34640;53.590;10.054;2022-08-21T11:34:04;101090.81;;;25.07;47.29
48824;BME280;34640;53.590;10.054;2022-08-21T11:37:23;101089.94;;;25.14;46.99
48824;BME280;34640;53.590;10.054;2022-08-21T11:40:54;101091.69;;;25.09;45.43
48824;BME280;34640;53.590;10.054;2022-08-21T11:44:12;101098.78;;;25.03;45.83
48824;BME280;34640;53.590;10.054;2022-08-21T11:47:31;101096.13;;;25.06;45.75
48824;BME280;34640;53.590;10.054;2022-08-21T11:50:44;101093.56;;;25.21;44.99
48824;BME280;34640;53.590;10.054;2022-08-21T11:54:03;101102.47;;;25.29;44.85
48824;BME280;34640;53.590;10.054;2022-08-21T11:57:19;101098.94;;;25.36;43.97
48824;BME280;34640;53.590;10.054;2022-08-21T12:00:33;101097.03;;;25.09;44.64
48824;BME280;34640;53.590;10.054;2022-08-21T12:03:54;101102.84;;;24.55;46.66
48824;BME280;34640;53.590;10.054;2022-08-21T12:07:11;101096.53;;;24.45;47.32
48824;BME280;34640;53.590;10.054;2022-08-21T12:10:31;101089.41;;;24.41;46.83
48824;BME280;34640;53.590;10.054;2022-08-21T12:13:53;101083.25;;;24.50;46.15
48824;BME280;34640;53.590;10.054;2022-08-21T12:17:07;101086.06;;;24.69;45.46
48824;BME280;34640;53.590;10.054;2022-08-21T12:20:41;101084.38;;;24.79;45.35
48824;BME280;34640;53.590;10.054;2022-08-21T12:24:02;101084.44;;;24.93;45.46
48824;BME280;34640;53.590;10.054;2022-08-21T12:27:20;101079.09;;;24.87;45.36
48824;BME280;34640;53.590;10.054;2022-08-21T12:30:37;101085.16;;;24.63;45.54
48824;BME280;34640;53.590;10.054;2022-08-21T12:33:52;101077.19;;;24.69;45.76
48824;BME280;34640;53.590;10.054;2022-08-21T12:37:09;101079.09;;;24.85;45.92
48824;BME280;34640;53.590;10.054;2022-08-21T12:40:29;101075.69;;;25.08;45.21
48824;BME280;34640;53.590;10.054;2022-08-21T12:43:43;101080.25;;;25.25;44.23
48824;BME280;34640;53.590;10.054;2022-08-21T12:46:59;101076.72;;;25.33;44.10
48824;BME280;34640;53.590;10.054;2022-08-21T12:50:15;101085.66;;;25.45;44.24
48824;BME280;34640;53.590;10.054;2022-08-21T12:53:31;101086.47;;;25.31;44.30
48824;BME280;34640;53.590;10.054;2022-08-21T12:56:43;101080.34;;;25.47;44.17
48824;BME280;34640;53.590;10.054;2022-08-21T12:59:56;101080.34;;;25.53;43.79
48824;BME280;34640;53.590;10.054;2022-08-21T13:03:08;101082.91;;;25.27;44.56
48824;BME280;34640;53.590;10.054;2022-08-21T13:06:20;101085.47;;;25.07;45.58
48824;BME280;34640;53.590;10.054;2022-08-21T13:09:34;101084.66;;;25.17;45.71
48824;BME280;34640;53.590;10.054;2022-08-21T13:12:46;101079.28;;;25.13;46.29
48824;BME280;34640;53.590;10.054;2022-08-21T13:15:59;101076.56;;;25.05;46.09
48824;BME280;34640;53.590;10.054;2022-08-21T13:19:17;101076.44;;;24.91;46.55
48824;BME280;34640;53.590;10.054;2022-08-21T13:22:31;101077.41;;;24.98;45.03
48824;BME280;34640;53.590;10.054;2022-08-21T13:25:46;101066.88;;;25.16;44.08
48824;BME280;34640;53.590;10.054;2022-08-21T13:29:06;101067.81;;;25.32;44.43
48824;BME280;34640;53.590;10.054;2022-08-21T13:32:22;101066.13;;;25.54;42.66
48824;BME280;34640;53.590;10.054;2022-08-21T13:35:47;101061.59;;;25.35;42.61
48824;BME280;34640;53.590;10.054;2022-08-21T13:38:57;101054.50;;;25.37;41.65
48824;BME280;34640;53.590;10.054;2022-08-21T13:42:11;101054.44;;;25.20;42.21
48824;BME280;34640;53.590;10.054;2022-08-21T13:45:25;101059.63;;;24.97;42.33
48824;BME280;34640;53.590;10.054;2022-08-21T13:48:37;101062.19;;;24.80;42.84
48824;BME280;34640;53.590;10.054;2022-08-21T13:51:48;101064.69;;;24.56;43.78
48824;BME280;34640;53.590;10.054;2022-08-21T13:55:09;101062.75;;;24.38;44.15
48824;BME280;34640;53.590;10.054;2022-08-21T13:58:25;101067.03;;;24.25;44.77
48824;BME280;34640;53.590;10.054;2022-08-21T14:01:38;101067.03;;;24.25;44.52
48824;BME280;34640;53.590;10.054;2022-08-21T14:04:54;101059.91;;;24.20;44.76
48824;BME280;34640;53.590;10.054;2022-08-21T14:08:10;101068.75;;;24.16;45.12
48824;BME280;34640;53.590;10.054;2022-08-21T14:11:21;101059.94;;;24.26;44.50
48824;BME280;34640;53.590;10.054;2022-08-21T14:14:33;101062.81;;;24.44;43.80
48824;BME280;34640;53.590;10.054;2022-08-21T14:17:46;101061.16;;;24.61;43.71
48824;BME280;34640;53.590;10.054;2022-08-21T14:21:06;101065.72;;;24.75;42.85
48824;BME280;34640;53.590;10.054;2022-08-21T14:24:26;101062.97;;;24.68;43.34
48824;BME280;34640;53.590;10.054;2022-08-21T14:27:42;101061.16;;;24.58;43.67
48824;BME280;34640;53.590;10.054;2022-08-21T14:30:54;101061.84;;;24.34;44.26
48824;BME280;34640;53.590;10.054;2022-08-21T14:34:06;101059.91;;;24.20;44.76
48824;BME280;34640;53.590;10.054;2022-08-21T14:37:28;101057.25;;;24.20;44.80
48824;BME280;34640;53.590;10.054;2022-08-21T14:40:48;101065.19;;;24.14;45.47
48824;BME280;34640;53.590;10.054;2022-08-21T14:43:59;101062.41;;;24.06;45.59
48824;BME280;34640;53.590;10.054;2022-08-21T14:47:18;101061.53;;;24.04;45.95
48824;BME280;34640;53.590;10.054;2022-08-21T14:50:28;101058.94;;;24.08;45.79
48824;BME280;34640;53.590;10.054;2022-08-21T14:53:40;101064.31;;;24.18;45.63
48824;BME280;34640;53.590;10.054;2022-08-21T14:56:50;101059.88;;;24.15;45.73
48824;BME280;34640;53.590;10.054;2022-08-21T15:00:03;101056.28;;;24.12;45.62
48824;BME280;34640;53.590;10.054;2022-08-21T15:03:13;101053.72;;;24.22;44.40
48824;BME280;34640;53.590;10.054;2022-08-21T15:06:24;101061.69;;;24.22;44.78
48824;BME280;34640;53.590;10.054;2022-08-21T15:09:35;101062.53;;;24.15;44.98
48824;BME280;34640;53.590;10.054;2022-08-21T15:12:46;101059.00;;;24.16;45.20
48824;BME280;34640;53.590;10.054;2022-08-21T15:15:57;101061.69;;;24.22;44.99
48824;BME280;34640;53.590;10.054;2022-08-21T15:19:08;101065.28;;;24.27;45.06
48824;BME280;34640;53.590;10.054;2022-08-21T15:22:18;101059.16;;;24.31;44.97
48824;BME280;34640;53.590;10.054;2022-08-21T15:25:40;101060.06;;;24.35;44.97
48824;BME280;34640;53.590;10.054;2022-08-21T15:28:51;101050.34;;;24.38;45.05
48824;BME280;34640;53.590;10.054;2022-08-21T15:32:16;101054.00;;;24.51;44.22
48824;BME280;34640;53.590;10.054;2022-08-21T15:35:27;101044.25;;;24.52;44.38
48824;BME280;34640;53.590;10.054;2022-08-21T15:38:37;101055.78;;;24.54;44.94
48824;BME280;34640;53.590;10.054;2022-08-21T15:41:48;101053.03;;;24.45;44.76
48824;BME280;34640;53.590;10.054;2022-08-21T15:44:59;101055.72;;;24.46;44.48
48824;BME280;34640;53.590;10.054;2022-08-21T15:48:10;101058.34;;;24.43;44.31
48824;BME280;34640;53.590;10.054;2022-08-21T15:51:20;101050.34;;;24.38;45.02
48824;BME280;34640;53.590;10.054;2022-08-21T15:54:31;101056.53;;;24.34;44.86
48824;BME280;34640;53.590;10.054;2022-08-21T15:57:46;101059.16;;;24.31;44.89
48824;BME280;34640;53.590;10.054;2022-08-21T16:01:06;101053.72;;;24.22;45.01
48824;BME280;34640;53.590;10.054;2022-08-21T16:04:21;101054.56;;;24.18;45.11
48824;BME280;34640;53.590;10.054;2022-08-21T16:07:32;101053.63;;;24.10;45.50
48824;BME280;34640;53.590;10.054;2022-08-21T16:10:42;101058.06;;;24.11;45.96
48824;BME280;34640;53.590;10.054;2022-08-21T16:13:54;101052.75;;;24.14;45.80
48824;BME280;34640;53.590;10.054;2022-08-21T16:17:05;101059.03;;;24.24;45.31
48824;BME280;34640;53.590;10.054;2022-08-21T16:20:21;101047.69;;;24.40;45.19
48824;BME280;34640;53.590;10.054;2022-08-21T16:23:33;101049.47;;;24.40;45.29
48824;BME280;34640;53.590;10.054;2022-08-21T16:26:43;101047.63;;;24.31;45.50
48824;BME280;34640;53.590;10.054;2022-08-21T16:30:08;101043.13;;;24.28;45.23
48824;BME280;34640;53.590;10.054;2022-08-21T16:33:22;101042.16;;;24.22;45.06
48824;BME280;34640;53.590;10.054;2022-08-21T16:36:34;101051.88;;;24.17;44.99
48824;BME280;34640;53.590;10.054;2022-08-21T16:39:45;101058.06;;;24.13;44.88